Time;durP1;ratioP1;P1;durP2;ratioP2;P2;SDS_P1;SDS_P2;PMS_P1;PMS_P2;Temp;Humidity;BMP_temperature;BMP_pressure;BME280_temperature;BME280_humidity;BME280_pressure;Samples;Min_cycle;Max_cycle;Signal;HPM_P1;HPM_P2
2022/01/09 00:01:38;;;;;;;41.78;6.47;;;;;;;6.00;82.41;99029.28;5027382;28;20100;-70
2022/01/09 00:04:03;;;;;;;31.02;4.88;;;;;;;6.00;82.64;99031.91;5031833;28;20769;-71
2022/01/09 00:06:29;;;;;;;40.65;5.57;;;;;;;6.01;82.33;99046.66;5025248;28;20534;-70
2022/01/09 00:08:54;;;;;;;42.05;5.05;;;;;;;6.03;82.35;99047.47;5025732;28;20384;-71
2022/01/09 00:11:26;;;;;;;34.45;4.82;;;;;;;6.02;82.06;99039.69;5029339;28;20112;-72
2022/01/09 00:13:54;;;;;;;49.83;5.53;;;;;;;6.05;81.67;99040.41;5045543;28;20105;-70
2022/01/09 00:16:20;;;;;;;47.85;6.47;;;;;;;6.05;81.26;99056.09;5044634;28;20090;-69
2022/01/09 00:18:46;;;;;;;42.85;7.43;;;;;;;6.09;81.49;99055.97;5044446;28;20029;-69
2022/01/09 00:21:12;;;;;;;50.92;7.80;;;;;;;6.08;81.31;99078.66;5045471;28;20036;-70
2022/01/09 00:23:37;;;;;;;38.58;5.10;;;;;;;6.10;80.10;99082.06;5045826;28;20029;-70
2022/01/09 00:26:02;;;;;;;41.13;5.93;;;;;;;6.14;79.85;99085.41;5045304;28;20582;-70
2022/01/09 00:28:28;;;;;;;32.60;4.93;;;;;;;6.15;80.19;99111.50;5057744;28;20031;-70
2022/01/09 00:30:53;;;;;;;41.75;5.25;;;;;;;6.14;80.04;99095.84;5047178;28;20471;-70
2022/01/09 00:33:22;;;;;;;34.40;5.55;;;;;;;6.13;80.13;99101.97;5058010;28;20028;-69
2022/01/09 00:35:49;;;;;;;35.67;5.20;;;;;;;6.11;79.84;99104.66;5009514;28;20052;-69
2022/01/09 00:38:14;;;;;;;30.13;4.43;;;;;;;6.12;79.13;99108.13;5024283;28;20037;-65
2022/01/09 00:40:39;;;;;;;39.22;5.40;;;;;;;6.16;79.23;99115.78;5025366;28;20118;-67
2022/01/09 00:43:09;;;;;;;42.47;5.55;;;;;;;6.15;78.37;99149.84;5007512;28;20044;-68
2022/01/09 00:45:36;;;;;;;38.08;5.20;;;;;;;6.18;77.77;99123.56;5026338;28;20255;-70
2022/01/09 00:48:01;;;;;;;43.58;4.90;;;;;;;6.19;78.56;99126.13;5029180;28;20041;-67
2022/01/09 00:50:26;;;;;;;37.13;6.00;;;;;;;6.17;79.33;99127.13;5033498;28;20125;-66
2022/01/09 00:52:52;;;;;;;43.28;5.53;;;;;;;6.18;79.25;99139.25;5048991;28;20108;-66
2022/01/09 00:55:18;;;;;;;50.30;6.32;;;;;;;6.22;79.15;99134.72;5030318;28;20059;-66
2022/01/09 00:57:44;;;;;;;48.53;5.53;;;;;;;6.19;78.02;99156.66;5030357;28;20490;-66
2022/01/09 01:00:09;;;;;;;37.42;4.25;;;;;;;6.21;77.86;99141.75;5048962;28;20028;-67
2022/01/09 01:02:35;;;;;;;36.42;5.47;;;;;;;6.21;77.57;99170.53;5048901;28;20036;-67
2022/01/09 01:05:00;;;;;;;32.15;4.93;;;;;;;6.20;77.46;99171.41;5048370;28;20021;-67
2022/01/09 01:07:28;;;;;;;39.13;5.68;;;;;;;6.19;77.15;99154.88;5048046;28;20491;-67
2022/01/09 01:09:53;;;;;;;42.30;5.85;;;;;;;6.21;77.30;99175.75;5027137;28;20079;-68
2022/01/09 01:12:19;;;;;;;34.78;5.50;;;;;;;6.19;77.09;99178.44;5027609;28;20048;-67
2022/01/09 01:14:45;;;;;;;32.65;4.90;;;;;;;6.28;76.93;99184.16;5028922;28;20395;-67
2022/01/09 01:17:10;;;;;;;44.17;5.35;;;;;;;6.27;76.24;99179.88;5028298;28;20120;-66
2022/01/09 01:19:36;;;;;;;37.83;5.90;;;;;;;6.27;76.56;99191.19;5027848;28;20450;-68
2022/01/09 01:22:02;;;;;;;37.95;6.32;;;;;;;6.27;76.82;99185.09;5028419;28;20029;-66
2022/01/09 01:24:27;;;;;;;35.55;5.15;;;;;;;6.29;77.03;99215.50;5028793;28;20369;-65
2022/01/09 01:26:53;;;;;;;27.58;5.97;;;;;;;6.25;77.34;99198.25;5028125;28;20361;-67
2022/01/09 01:29:18;;;;;;;33.50;5.25;;;;;;;6.25;76.91;99208.69;5031032;28;20372;-67
2022/01/09 01:31:43;;;;;;;45.05;5.22;;;;;;;6.23;76.63;99220.97;5028462;28;20503;-68
2022/01/09 01:34:12;;;;;;;32.17;4.80;;;;;;;6.24;76.32;99222.72;5027411;28;20416;-67
2022/01/09 01:36:37;;;;;;;38.92;4.97;;;;;;;6.23;75.92;99225.38;5028275;28;20477;-68
2022/01/09 01:39:02;;;;;;;28.77;4.72;;;;;;;6.21;76.21;99228.06;5028391;28;20061;-67
2022/01/09 01:41:28;;;;;;;28.45;4.55;;;;;;;6.23;75.81;99244.53;5028090;28;20095;-68
2022/01/09 01:43:53;;;;;;;35.40;4.75;;;;;;;6.16;75.36;99243.09;5032588;28;20025;-67
2022/01/09 01:46:18;;;;;;;31.15;4.22;;;;;;;6.15;75.43;99255.31;5048131;28;20048;-68
2022/01/09 01:48:44;;;;;;;29.83;4.00;;;;;;;6.13;75.69;99257.16;5047382;28;20467;-67
2022/01/09 01:51:09;;;;;;;28.98;4.45;;;;;;;6.14;75.35;99284.16;5047982;28;20021;-66
2022/01/09 01:53:34;;;;;;;25.40;4.90;;;;;;;6.16;75.06;99300.63;5048023;28;20025;-68
2022/01/09 01:56:01;;;;;;;29.98;4.13;;;;;;;6.19;75.30;99282.19;5047690;28;20028;-67
2022/01/09 01:58:27;;;;;;;32.00;4.43;;;;;;;6.15;74.94;99291.94;5047047;28;20025;-68
2022/01/09 02:00:52;;;;;;;28.35;4.22;;;;;;;6.13;74.58;99292.91;5038985;28;20029;-67
2022/01/09 02:03:18;;;;;;;25.83;4.28;;;;;;;6.13;74.50;99285.06;5047917;28;20025;-68
2022/01/09 02:05:45;;;;;;;29.63;3.47;;;;;;;6.07;75.03;99300.09;5045804;28;20036;-68
2022/01/09 02:08:10;;;;;;;30.33;4.65;;;;;;;6.05;75.36;99301.91;5052487;28;20044;-65
2022/01/09 02:10:44;;;;;;;33.17;5.78;;;;;;;6.06;74.99;99305.38;5067674;28;20078;-68
2022/01/09 02:13:10;;;;;;;25.67;4.25;;;;;;;6.05;74.83;99306.31;5067984;28;20074;-67
2022/01/09 02:15:43;;;;;;;28.33;4.25;;;;;;;6.04;75.37;99333.34;5067699;28;20032;-69
2022/01/09 02:18:11;;;;;;;36.45;3.90;;;;;;;6.07;75.96;99330.59;5049532;28;20032;-67
2022/01/09 02:20:37;;;;;;;30.33;4.47;;;;;;;6.10;76.21;99317.41;5046455;28;20091;-67
2022/01/09 02:23:05;;;;;;;45.63;5.82;;;;;;;6.05;76.36;99329.84;5045880;28;20036;-68
2022/01/09 02:25:31;;;;;;;22.95;3.78;;;;;;;6.07;76.13;99343.69;5047129;28;20467;-67
2022/01/09 02:27:56;;;;;;;32.97;4.40;;;;;;;6.00;75.76;99366.59;5047242;28;20029;-66
2022/01/09 02:30:22;;;;;;;20.00;4.13;;;;;;;6.04;75.44;99356.88;5047429;28;20483;-68
2022/01/09 02:32:47;;;;;;;36.20;4.53;;;;;;;5.99;75.06;99358.81;5030453;28;20048;-67
2022/01/09 02:35:13;;;;;;;27.05;4.15;;;;;;;5.97;75.36;99368.47;5065622;28;20067;-67
2022/01/09 02:37:38;;;;;;;22.77;3.75;;;;;;;5.90;75.45;99365.25;5063716;28;20024;-66
2022/01/09 02:40:05;;;;;;;24.67;3.38;;;;;;;5.84;75.49;99386.38;5045887;28;20790;-68
2022/01/09 02:42:31;;;;;;;31.33;3.15;;;;;;;5.85;75.64;99383.72;5046387;28;20021;-67
2022/01/09 02:44:57;;;;;;;23.15;3.45;;;;;;;5.81;75.44;99388.19;5056054;28;20024;-70
2022/01/09 02:47:24;;;;;;;20.55;3.22;;;;;;;5.84;75.12;99376.75;5067236;28;20490;-68
2022/01/09 02:49:52;;;;;;;27.30;4.05;;;;;;;5.81;74.91;99392.59;5065313;28;20090;-67
2022/01/09 02:55:11;;;;;;;19.48;4.57;;;;;;;5.80;73.53;99396.09;5067074;28;20036;-68
2022/01/09 02:57:45;;;;;;;23.52;2.95;;;;;;;5.76;73.65;99399.72;5065792;28;20395;-67
2022/01/09 03:00:13;;;;;;;20.15;3.75;;;;;;;5.74;73.32;99417.22;5067058;28;20048;-69
2022/01/09 03:02:38;;;;;;;27.40;3.83;;;;;;;5.73;73.77;99407.69;5066461;28;20055;-67
2022/01/09 03:05:04;;;;;;;17.55;3.30;;;;;;;5.66;74.52;99433.22;5065925;28;20537;-68
2022/01/09 03:07:30;;;;;;;23.50;3.53;;;;;;;5.73;74.58;99441.66;5048757;28;20487;-71
2022/01/09 03:09:55;;;;;;;30.73;4.03;;;;;;;5.69;75.58;99443.56;5050618;28;20124;-68
2022/01/09 03:12:22;;;;;;;21.67;4.47;;;;;;;5.73;75.59;99458.22;5046435;28;20082;-68
2022/01/09 03:14:47;;;;;;;22.27;3.58;;;;;;;5.69;75.53;99454.84;5045504;28;20056;-69
2022/01/09 03:17:12;;;;;;;35.15;3.05;;;;;;;5.72;75.55;99450.41;5046671;28;20479;-69
2022/01/09 03:19:38;;;;;;;20.60;3.03;;;;;;;5.68;75.61;99460.13;5045852;28;20495;-70
2022/01/09 03:22:03;;;;;;;24.05;3.38;;;;;;;5.62;75.96;99465.56;5046259;28;20823;-67
2022/01/09 03:24:29;;;;;;;26.00;4.05;;;;;;;5.59;76.04;99473.50;5063810;28;20028;-67
2022/01/09 03:26:54;;;;;;;25.00;4.15;;;;;;;5.56;75.60;99474.47;5065095;28;20025;-67
2022/01/09 03:29:19;;;;;;;20.90;3.45;;;;;;;5.53;75.22;99482.41;5065920;28;20029;-68
2022/01/09 03:31:45;;;;;;;27.88;3.70;;;;;;;5.60;74.86;99509.22;5065993;28;20075;-69
2022/01/09 03:34:10;;;;;;;19.90;3.40;;;;;;;5.55;74.64;99476.25;5065948;28;20474;-68
2022/01/09 03:36:35;;;;;;;19.33;2.85;;;;;;;5.54;74.13;99495.44;5066136;28;20443;-70
2022/01/09 03:39:00;;;;;;;32.22;2.97;;;;;;;5.50;74.66;99491.22;5049993;28;20035;-67
2022/01/09 03:41:27;;;;;;;26.75;3.50;;;;;;;5.48;74.67;99503.47;5045865;28;20040;-68
2022/01/09 03:43:52;;;;;;;19.38;3.00;;;;;;;5.43;74.25;99492.34;5044369;28;20025;-68
2022/01/09 03:46:17;;;;;;;21.02;3.30;;;;;;;5.40;73.99;99492.44;5045514;28;20036;-69
2022/01/09 03:48:43;;;;;;;19.88;3.35;;;;;;;5.41;74.13;99521.13;5045948;28;20025;-67
2022/01/09 03:51:10;;;;;;;13.77;2.75;;;;;;;5.41;73.56;99512.44;5045780;28;20028;-68
2022/01/09 03:53:35;;;;;;;24.10;3.45;;;;;;;5.42;74.05;99508.94;5057115;28;20028;-70
2022/01/09 03:56:01;;;;;;;37.00;4.00;;;;;;;5.42;73.63;99524.63;5065814;28;20032;-70
2022/01/09 03:58:26;;;;;;;19.65;2.95;;;;;;;5.47;73.52;99527.91;5055521;28;20024;-67
2022/01/09 04:00:51;;;;;;;13.68;2.75;;;;;;;5.52;73.46;99525.13;5045387;28;20053;-67
2022/01/09 04:03:17;;;;;;;27.00;3.13;;;;;;;5.52;73.93;99533.84;5045113;28;20025;-67
2022/01/09 04:05:42;;;;;;;20.77;2.88;;;;;;;5.50;73.64;99547.84;5045510;28;20033;-67
2022/01/09 04:08:07;;;;;;;18.42;3.05;;;;;;;5.48;74.15;99534.81;5045315;28;20049;-67
2022/01/09 04:10:40;;;;;;;14.73;2.50;;;;;;;5.47;73.81;99535.75;5046020;28;20029;-67
2022/01/09 04:13:05;;;;;;;16.38;3.30;;;;;;;5.50;74.05;99545.22;5044864;28;20098;-68
2022/01/09 04:15:30;;;;;;;21.42;2.53;;;;;;;5.43;74.11;99562.88;5045673;28;20544;-68
2022/01/09 04:17:57;;;;;;;11.75;2.35;;;;;;;5.39;74.18;99553.44;5043933;28;20025;-67
2022/01/09 04:20:27;;;;;;;14.35;2.90;;;;;;;5.38;74.07;99557.81;5061811;28;20182;-68
2022/01/09 04:22:53;;;;;;;24.08;3.15;;;;;;;5.35;73.97;99538.75;5068552;28;20044;-67
2022/01/09 04:25:19;;;;;;;17.88;2.65;;;;;;;5.30;74.48;99562.44;5069223;28;20547;-68
2022/01/09 04:27:46;;;;;;;13.02;2.17;;;;;;;5.26;74.58;99555.59;5069293;28;20471;-67
2022/01/09 04:30:11;;;;;;;21.20;2.88;;;;;;;5.24;74.75;99560.84;5052124;28;20024;-67
2022/01/09 04:32:37;;;;;;;19.38;2.85;;;;;;;5.24;74.31;99579.13;5069665;28;20024;-69
2022/01/09 04:35:03;;;;;;;24.73;3.25;;;;;;;5.22;74.41;99585.31;5057141;28;20538;-68
2022/01/09 04:37:29;;;;;;;22.42;3.20;;;;;;;5.21;74.47;99584.47;5049204;28;20087;-69
2022/01/09 04:39:55;;;;;;;22.25;3.15;;;;;;;5.26;74.29;99597.38;5047976;28;20036;-69
2022/01/09 04:42:26;;;;;;;14.02;2.95;;;;;;;5.26;73.29;99600.00;5049308;28;20021;-69
2022/01/09 04:44:51;;;;;;;14.20;2.83;;;;;;;5.26;72.89;99598.25;5048788;28;20475;-68
2022/01/09 04:47:17;;;;;;;12.60;2.40;;;;;;;5.29;72.35;99605.13;5049221;28;20032;-70
2022/01/09 04:49:45;;;;;;;21.08;2.75;;;;;;;5.25;73.17;99614.81;5048040;28;20099;-68
2022/01/09 04:52:14;;;;;;;21.92;2.85;;;;;;;5.11;72.99;99609.16;5049646;28;20056;-68
2022/01/09 04:54:40;;;;;;;13.27;2.47;;;;;;;5.08;73.20;99611.91;5048558;28;20100;-68
2022/01/09 04:57:06;;;;;;;16.83;2.65;;;;;;;5.06;73.38;99627.59;5047621;28;20457;-68
2022/01/09 04:59:31;;;;;;;22.67;2.95;;;;;;;5.04;73.50;99629.41;5049140;28;20466;-69
2022/01/09 05:01:56;;;;;;;16.52;3.42;;;;;;;5.02;73.47;99633.78;5047994;28;20100;-67
2022/01/09 05:04:22;;;;;;;19.30;2.50;;;;;;;4.99;73.74;99633.88;5049971;28;20451;-70
2022/01/09 05:06:47;;;;;;;14.93;2.13;;;;;;;4.97;73.98;99640.94;5047864;28;20029;-68
2022/01/09 05:09:12;;;;;;;14.13;2.78;;;;;;;4.95;74.30;99642.72;5048560;28;20045;-68
2022/01/09 05:11:38;;;;;;;11.13;2.10;;;;;;;4.99;74.33;99642.59;5047708;28;20064;-69
2022/01/09 05:14:03;;;;;;;17.00;2.65;;;;;;;4.99;74.56;99642.59;5048505;28;20524;-70
2022/01/09 05:16:29;;;;;;;15.85;3.08;;;;;;;4.98;74.62;99653.94;5047697;28;20021;-70
2022/01/09 05:19:02;;;;;;;18.10;3.10;;;;;;;5.06;74.35;99659.78;5046620;28;20061;-69
2022/01/09 05:21:27;;;;;;;16.90;2.63;;;;;;;5.15;74.26;99660.41;5048655;28;20099;-69
2022/01/09 05:23:52;;;;;;;14.93;2.80;;;;;;;5.17;73.88;99672.50;5034623;28;20074;-68
2022/01/09 05:26:18;;;;;;;18.20;3.00;;;;;;;5.22;73.66;99688.06;5031373;28;20029;-68
2022/01/09 05:28:43;;;;;;;18.35;2.75;;;;;;;5.23;73.24;99692.38;5028879;28;20028;-69
2022/01/09 05:31:09;;;;;;;17.77;2.70;;;;;;;5.27;73.02;99682.69;5027767;28;20056;-68
2022/01/09 05:33:34;;;;;;;8.15;2.25;;;;;;;5.30;72.97;99693.03;5027825;28;20100;-71
2022/01/09 05:36:00;;;;;;;18.75;2.95;;;;;;;5.31;72.91;99686.91;5028185;28;20034;-70
2022/01/09 05:38:25;;;;;;;25.75;2.50;;;;;;;5.31;73.22;99687.78;5027946;28;20029;-70
2022/01/09 05:40:50;;;;;;;15.32;2.80;;;;;;;5.29;73.97;99710.47;5028099;28;20038;-68
2022/01/09 05:43:16;;;;;;;18.60;2.70;;;;;;;5.22;74.81;99695.88;5027888;28;20029;-71
2022/01/09 05:45:41;;;;;;;17.20;2.42;;;;;;;5.14;74.13;99692.63;5010434;28;20021;-70
2022/01/09 05:48:07;;;;;;;19.00;2.25;;;;;;;5.06;74.77;99695.50;5027908;28;20532;-69
2022/01/09 05:50:33;;;;;;;14.90;2.38;;;;;;;5.04;74.92;99705.13;5027341;28;20388;-70
2022/01/09 05:52:59;;;;;;;17.30;2.80;;;;;;;5.10;75.29;99717.13;5027605;28;20094;-70
2022/01/09 05:55:24;;;;;;;15.05;2.70;;;;;;;5.12;74.77;99721.41;5027876;28;20029;-70
2022/01/09 05:57:49;;;;;;;14.07;2.25;;;;;;;5.19;74.98;99711.66;5027570;28;20108;-70
2022/01/09 06:00:15;;;;;;;14.77;3.00;;;;;;;5.20;74.80;99720.34;5027767;28;20114;-69
2022/01/09 06:02:41;;;;;;;18.98;2.33;;;;;;;5.20;74.24;99718.56;5010334;28;20021;-69
2022/01/09 06:05:07;;;;;;;15.32;2.38;;;;;;;5.18;73.69;99726.44;5026997;28;20025;-72
2022/01/09 06:07:32;;;;;;;26.25;2.70;;;;;;;5.22;74.37;99737.69;5027719;28;20029;-70
2022/01/09 06:09:58;;;;;;;13.93;2.78;;;;;;;5.12;75.30;99723.19;5027362;28;20049;-69
2022/01/09 06:12:23;;;;;;;16.05;2.80;;;;;;;5.00;76.00;99740.06;5010170;28;20538;-70
2022/01/09 06:14:48;;;;;;;18.95;3.22;;;;;;;4.95;76.41;99732.34;5008988;28;20029;-70
2022/01/09 06:17:13;;;;;;;11.98;2.63;;;;;;;4.91;76.99;99742.00;5009959;28;20033;-70
2022/01/09 06:19:39;;;;;;;14.25;2.53;;;;;;;4.77;76.46;99745.03;5027021;28;20021;-70
2022/01/09 06:22:04;;;;;;;16.83;3.15;;;;;;;4.77;76.25;99751.97;5027326;28;20040;-68
2022/01/09 06:24:30;;;;;;;20.25;2.75;;;;;;;4.75;75.65;99752.03;5027688;28;20021;-69
2022/01/09 06:26:55;;;;;;;14.13;2.75;;;;;;;4.76;75.48;99755.50;5027194;28;20494;-70
2022/01/09 06:29:20;;;;;;;14.45;2.28;;;;;;;4.85;75.28;99760.44;5027491;28;20032;-70
2022/01/09 06:31:46;;;;;;;16.20;2.42;;;;;;;4.93;75.23;99771.53;5026646;28;20022;-70
2022/01/09 06:34:13;;;;;;;14.13;2.70;;;;;;;4.92;75.15;99774.19;5026979;28;20479;-69
2022/01/09 06:36:39;;;;;;;17.75;2.65;;;;;;;4.93;74.60;99775.91;5026928;28;20156;-68
2022/01/09 06:39:04;;;;;;;18.73;2.47;;;;;;;4.99;74.34;99770.50;5008985;28;20025;-71
2022/01/09 06:41:31;;;;;;;14.20;2.20;;;;;;;5.03;74.46;99782.59;5027195;28;20175;-68
2022/01/09 06:43:56;;;;;;;15.10;2.92;;;;;;;5.03;73.78;99790.41;5026457;28;20080;-69
2022/01/09 06:46:21;;;;;;;12.25;2.63;;;;;;;5.01;73.78;99835.75;5026956;28;20571;-70
2022/01/09 06:48:47;;;;;;;13.55;2.08;;;;;;;4.80;75.59;99806.72;5040173;28;20044;-70
2022/01/09 06:51:12;;;;;;;14.73;2.20;;;;;;;4.65;76.88;99810.59;5047323;28;20479;-69
2022/01/09 06:53:38;;;;;;;9.93;1.90;;;;;;;4.56;77.30;99809.06;5046092;28;20384;-68
2022/01/09 06:56:04;;;;;;;10.77;2.05;;;;;;;4.54;77.21;99836.94;5045931;28;20032;-68
2022/01/09 06:58:29;;;;;;;15.90;2.45;;;;;;;4.53;76.56;99810.00;5046645;28;20044;-70
2022/01/09 07:00:55;;;;;;;6.28;1.70;;;;;;;4.53;77.23;99810.00;5046232;28;20029;-70
2022/01/09 07:03:20;;;;;;;19.75;2.55;;;;;;;4.55;77.42;99813.41;5050870;28;20371;-71
2022/01/09 07:05:45;;;;;;;17.70;3.15;;;;;;;4.65;77.45;99821.03;5058418;28;20939;-70
2022/01/09 07:08:11;;;;;;;23.33;2.75;;;;;;;4.68;77.77;99813.13;5066535;28;20044;-70
2022/01/09 07:10:36;;;;;;;19.50;3.13;;;;;;;4.70;77.73;99826.13;5047587;28;20043;-70
2022/01/09 07:13:02;;;;;;;31.52;3.67;;;;;;;4.66;77.88;99830.56;5065077;28;20032;-69
2022/01/09 07:15:28;;;;;;;17.10;3.05;;;;;;;4.63;77.99;99826.28;5066148;28;20020;-71
2022/01/09 07:17:53;;;;;;;21.33;2.65;;;;;;;4.65;77.55;99837.53;5042188;28;20037;-62
2022/01/09 07:20:18;;;;;;;17.10;2.85;;;;;;;4.68;77.31;99840.06;5035451;28;20021;-64
2022/01/09 07:22:44;;;;;;;19.55;2.60;;;;;;;4.67;76.79;99832.28;5040035;28;20113;-64
2022/01/09 07:25:09;;;;;;;8.95;1.80;;;;;;;4.73;76.40;99831.25;5036009;28;20463;-68
2022/01/09 07:27:34;;;;;;;17.00;2.83;;;;;;;4.71;76.12;99833.91;5024352;28;20021;-68
2022/01/09 07:30:00;;;;;;;14.57;2.13;;;;;;;4.66;75.29;99838.38;5034906;28;20092;-67
2022/01/09 07:32:25;;;;;;;13.85;2.35;;;;;;;4.73;74.75;99852.13;5041186;28;20024;-66
2022/01/09 07:34:51;;;;;;;16.50;2.17;;;;;;;4.83;74.36;99864.06;5025660;28;20100;-69
2022/01/09 07:37:16;;;;;;;11.10;2.65;;;;;;;4.88;74.38;99871.78;5025792;28;20034;-67
2022/01/09 07:39:41;;;;;;;12.85;2.30;;;;;;;4.93;74.01;99881.19;5025445;28;20025;-67
2022/01/09 07:42:07;;;;;;;5.30;1.75;;;;;;;4.90;72.58;99886.50;5007191;28;20469;-69
2022/01/09 07:44:32;;;;;;;11.05;2.17;;;;;;;4.87;73.20;99876.13;5007973;28;20048;-68
2022/01/09 07:46:58;;;;;;;26.08;3.35;;;;;;;4.88;73.82;99866.56;5024601;28;20091;-67
2022/01/09 07:49:23;;;;;;;19.52;2.72;;;;;;;4.88;74.77;99882.22;5029689;28;20071;-66
2022/01/09 07:51:49;;;;;;;15.13;2.50;;;;;;;4.89;74.82;99874.34;5026973;28;20025;-68
2022/01/09 07:54:14;;;;;;;14.80;2.70;;;;;;;4.91;75.38;99876.91;5045094;28;20029;-67
2022/01/09 07:56:40;;;;;;;10.57;2.47;;;;;;;4.89;75.83;99876.97;5027505;28;20028;-65
2022/01/09 07:59:05;;;;;;;11.75;2.95;;;;;;;4.97;75.68;99881.97;5038178;28;20026;-66
2022/01/09 08:01:30;;;;;;;15.95;3.10;;;;;;;4.95;75.55;99878.56;5033187;28;20178;-67
2022/01/09 08:03:56;;;;;;;25.50;3.38;;;;;;;4.99;75.39;99879.31;5044867;28;20021;-64
2022/01/09 08:06:21;;;;;;;13.88;2.17;;;;;;;5.01;75.32;99888.84;5045736;28;20104;-64
2022/01/09 08:08:46;;;;;;;15.85;3.38;;;;;;;5.06;75.14;99900.00;5045326;28;20090;-66
2022/01/09 08:11:12;;;;;;;23.08;3.67;;;;;;;5.04;75.67;99914.88;5045380;28;20357;-68
2022/01/09 08:13:37;;;;;;;22.27;2.90;;;;;;;5.01;76.30;99916.69;5045738;28;20393;-65
2022/01/09 08:16:02;;;;;;;17.13;2.65;;;;;;;4.93;76.96;99927.31;5045482;28;20490;-64
2022/01/09 08:18:27;;;;;;;7.50;2.20;;;;;;;4.76;77.44;99923.38;5044137;28;20043;-65
2022/01/09 08:20:53;;;;;;;9.90;1.70;;;;;;;4.74;76.76;99926.91;5045431;28;20017;-64
2022/01/09 08:23:18;;;;;;;13.10;2.60;;;;;;;4.68;77.32;99920.09;5045563;28;20068;-65
2022/01/09 08:25:45;;;;;;;8.85;1.70;;;;;;;4.69;77.29;99929.63;5044654;28;20032;-62
2022/01/09 08:28:10;;;;;;;12.05;2.45;;;;;;;4.74;77.38;99925.19;5043475;28;20036;-63
2022/01/09 08:30:35;;;;;;;17.65;2.72;;;;;;;4.71;77.78;99925.25;5045751;28;20028;-64
2022/01/09 08:33:01;;;;;;;17.52;2.53;;;;;;;4.71;78.05;99934.81;5043660;28;20021;-65
2022/01/09 08:35:26;;;;;;;17.00;2.42;;;;;;;4.74;77.88;99929.53;5045773;28;20021;-69
2022/01/09 08:37:52;;;;;;;21.15;2.92;;;;;;;4.75;77.79;99945.16;5045691;28;20033;-69
2022/01/09 08:40:22;;;;;;;15.63;2.55;;;;;;;4.82;77.47;99958.94;5045133;28;20112;-63
2022/01/09 08:42:51;;;;;;;11.30;2.42;;;;;;;4.88;77.02;99958.75;5044595;28;20151;-62
2022/01/09 08:45:17;;;;;;;11.90;2.28;;;;;;;4.95;76.79;99949.03;5044974;28;20051;-69
2022/01/09 08:47:43;;;;;;;10.80;2.38;;;;;;;4.93;75.68;99959.53;5044951;28;20047;-70
2022/01/09 08:50:10;;;;;;;14.77;2.03;;;;;;;4.89;74.21;99964.84;5026346;28;20051;-69
2022/01/09 08:52:36;;;;;;;16.13;4.30;;;;;;;4.88;74.39;99968.38;5027007;28;20499;-65
2022/01/09 08:55:03;;;;;;;18.70;4.13;;;;;;;4.92;75.62;99975.22;5043732;28;20060;-61
2022/01/09 08:57:29;;;;;;;22.40;6.10;;;;;;;4.93;75.81;99980.41;5044537;28;20025;-65
2022/01/09 08:59:54;;;;;;;20.85;3.95;;;;;;;4.97;75.52;99981.16;5044310;28;20036;-64
2022/01/09 09:02:20;;;;;;;14.43;2.95;;;;;;;5.04;75.90;99985.38;5044413;28;20017;-66
2022/01/09 09:04:45;;;;;;;19.55;3.13;;;;;;;5.10;75.92;99975.66;5043768;28;20154;-65
2022/01/09 09:07:11;;;;;;;23.77;2.63;;;;;;;5.13;75.59;99986.91;5046125;28;20310;-65
2022/01/09 09:09:37;;;;;;;16.80;2.83;;;;;;;5.24;74.00;99976.16;5047708;28;20047;-62
2022/01/09 09:12:03;;;;;;;16.30;2.15;;;;;;;5.31;74.45;99990.81;5047955;28;20033;-64
2022/01/09 09:14:29;;;;;;;13.40;3.03;;;;;;;5.44;74.21;99995.69;5047835;28;20029;-65
2022/01/09 09:16:54;;;;;;;10.45;1.90;;;;;;;5.52;72.47;100003.34;5047326;28;20028;-67
2022/01/09 09:19:20;;;;;;;15.23;2.67;;;;;;;5.50;73.17;100002.50;5047033;28;20025;-66
2022/01/09 09:21:46;;;;;;;20.00;2.63;;;;;;;5.55;73.64;100009.34;5047566;28;20025;-66
2022/01/09 09:24:12;;;;;;;12.07;3.00;;;;;;;5.60;74.26;100013.59;5047918;28;20035;-66
2022/01/09 09:26:38;;;;;;;18.20;2.88;;;;;;;5.58;73.83;100013.63;5047832;28;20377;-64
2022/01/09 09:29:05;;;;;;;16.83;2.97;;;;;;;5.60;74.82;100018.81;5047828;28;20335;-66
2022/01/09 09:31:31;;;;;;;22.42;3.65;;;;;;;5.61;75.20;100034.47;5047642;28;20491;-67
2022/01/09 09:33:56;;;;;;;19.60;3.88;;;;;;;5.56;75.49;100037.19;5046325;28;20059;-66
2022/01/09 09:36:23;;;;;;;22.50;2.75;;;;;;;5.69;74.84;100032.47;5047368;28;20117;-65
2022/01/09 09:38:48;;;;;;;10.35;2.58;;;;;;;5.76;75.13;100033.19;5047356;28;20059;-66
2022/01/09 09:41:13;;;;;;;14.65;2.67;;;;;;;5.74;75.04;100045.44;5047744;28;20052;-64
2022/01/09 09:43:39;;;;;;;17.73;2.55;;;;;;;5.89;74.80;100048.53;5029816;28;20079;-64
2022/01/09 09:46:04;;;;;;;24.98;4.07;;;;;;;5.91;74.81;100041.50;5047129;28;20245;-65
2022/01/09 09:48:29;;;;;;;16.00;2.65;;;;;;;5.84;75.68;100050.44;5028470;28;20025;-65
2022/01/09 09:50:55;;;;;;;12.23;2.45;;;;;;;5.89;75.17;100048.53;5047090;28;20021;-65
2022/01/09 09:53:21;;;;;;;21.98;2.65;;;;;;;5.90;75.43;100048.50;5047066;28;20463;-69
2022/01/09 09:55:48;;;;;;;18.98;2.55;;;;;;;5.99;75.23;100055.22;5046792;28;20025;-67
2022/01/09 09:58:14;;;;;;;17.55;3.38;;;;;;;6.11;74.19;100058.44;5047210;28;20055;-67
2022/01/09 10:00:40;;;;;;;14.50;2.50;;;;;;;6.17;73.58;100050.44;5028220;28;20029;-67
2022/01/09 10:03:06;;;;;;;18.70;3.78;;;;;;;6.12;72.84;100060.16;5040576;28;20052;-69
2022/01/09 10:05:36;;;;;;;13.95;3.25;;;;;;;5.97;70.84;100072.72;5046322;28;20025;-69
2022/01/09 10:08:10;;;;;;;15.55;2.70;;;;;;;6.00;71.09;100067.41;5030265;28;20141;-70
2022/01/09 10:10:37;;;;;;;9.07;1.73;;;;;;;5.91;71.37;100079.00;5008378;28;20029;-69
2022/01/09 10:13:15;;;;;;;16.25;3.00;;;;;;;5.86;70.96;100080.00;5035697;28;20387;-68
2022/01/09 10:15:56;;;;;;;16.40;2.30;;;;;;;5.92;71.71;100070.25;5015771;28;20101;-68
2022/01/09 10:18:53;;;;;;;16.33;2.58;;;;;;;5.91;72.99;100075.50;5040246;28;20087;-66
2022/01/09 10:21:20;;;;;;;10.40;2.40;;;;;;;5.90;72.98;100081.66;5030097;28;20025;-68
2022/01/09 10:24:00;;;;;;;12.45;1.95;;;;;;;5.90;71.55;100103.41;5047137;28;20463;-67
2022/01/09 10:26:26;;;;;;;13.85;2.05;;;;;;;5.72;70.68;100078.59;5029352;28;20360;-68
2022/01/09 10:28:52;;;;;;;13.60;2.22;;;;;;;5.88;71.13;100091.28;5047197;28;20025;-65
2022/01/09 10:31:19;;;;;;;6.07;2.25;;;;;;;6.01;71.10;100090.06;5033813;28;20044;-64
2022/01/09 10:34:17;;;;;;;11.70;2.58;;;;;;;6.07;70.40;100091.66;5037513;28;20060;-65
2022/01/09 10:36:49;;;;;;;8.00;1.80;;;;;;;6.11;69.44;100089.84;5016700;28;20045;-63
2022/01/09 10:39:18;;;;;;;9.63;1.80;;;;;;;6.14;68.42;100095.00;5025840;28;20197;-68
2022/01/09 10:41:51;;;;;;;;;;;;;;;6.24;68.60;100100.81;5027132;28;20097;-66
2022/01/09 10:44:19;;;;;;;9.00;2.38;;;;;;;6.38;69.30;100095.22;5010393;28;19917;-68
2022/01/09 10:46:55;;;;;;;8.85;2.47;;;;;;;6.40;69.60;100090.75;5025656;28;20503;-64
2022/01/09 10:49:21;;;;;;;16.23;4.20;;;;;;;6.38;69.22;100105.69;5026299;28;20136;-69
2022/01/09 10:51:47;;;;;;;19.92;5.72;;;;;;;6.41;69.09;100103.81;5025856;28;20503;-67
2022/01/09 10:54:27;;;;;;;14.32;5.72;;;;;;;6.46;69.29;100101.06;5027146;28;20495;-66
2022/01/09 10:57:11;;;;;;;21.17;4.00;;;;;;;6.54;69.21;100101.69;5008066;28;20032;-66
2022/01/09 10:59:36;;;;;;;17.67;4.50;;;;;;;6.55;69.58;100105.19;5025839;28;20491;-71
2022/01/09 11:02:02;;;;;;;18.35;3.25;;;;;;;6.56;69.96;100101.66;5007714;28;20040;-71
2022/01/09 11:04:28;;;;;;;15.07;4.13;;;;;;;6.50;69.88;100099.22;5007513;28;20023;-68
2022/01/09 11:06:54;;;;;;;18.13;3.58;;;;;;;6.56;70.20;100104.25;5026037;28;20017;-68
2022/01/09 11:09:21;;;;;;;24.52;4.32;;;;;;;6.60;69.16;100120.75;5030488;28;20059;-67
2022/01/09 11:11:48;;;;;;;24.88;5.47;;;;;;;6.56;69.73;100107.75;5028229;28;20056;-66
2022/01/09 11:14:18;;;;;;;16.95;4.40;;;;;;;6.65;70.09;100105.78;5033872;28;20112;-66
2022/01/09 11:16:51;;;;;;;16.35;3.88;;;;;;;6.70;69.87;100111.72;4992709;28;20380;-67
2022/01/09 11:19:18;;;;;;;18.80;4.80;;;;;;;6.68;69.91;100122.25;5034298;28;20048;-66
2022/01/09 11:22:01;;;;;;;24.10;4.15;;;;;;;6.66;70.48;100124.06;5009118;28;20543;-69
2022/01/09 11:24:57;;;;;;;13.82;3.30;;;;;;;6.69;70.24;100123.09;5028331;28;20041;-68
2022/01/09 11:27:23;;;;;;;19.23;4.05;;;;;;;6.56;70.14;100120.84;5009000;28;20025;-69
2022/01/09 11:30:07;;;;;;;19.20;3.17;;;;;;;6.35;71.09;100151.09;5025906;28;20467;-67
2022/01/09 11:32:48;;;;;;;13.38;2.30;;;;;;;6.32;70.76;100132.84;5024734;28;20060;-68